createdAt,value
2018-09-27T00:02:11.832Z,2.70
2018-09-27T00:04:37.796Z,2.83
2018-09-27T00:07:04.508Z,2.57
2018-09-27T00:09:30.465Z,3.17
2018-09-27T00:11:56.435Z,3.00
2018-09-27T00:14:22.380Z,3.60
2018-09-27T00:16:48.339Z,2.93
2018-09-27T00:19:14.284Z,3.03
2018-09-27T00:21:40.249Z,3.07
2018-09-27T00:24:06.206Z,3.10
2018-09-27T00:26:32.167Z,2.67
2018-09-27T00:28:58.119Z,3.23
2018-09-27T00:31:24.827Z,3.20
2018-09-27T00:33:51.033Z,2.97
2018-09-27T00:36:17.139Z,3.30
2018-09-27T00:38:43.131Z,3.27
2018-09-27T00:41:09.819Z,3.20
2018-09-27T00:43:35.810Z,3.43
2018-09-27T00:46:02.498Z,3.43
2018-09-27T00:48:28.476Z,3.80
2018-09-27T00:50:54.439Z,3.40
2018-09-27T00:53:20.726Z,3.50
2018-09-27T00:55:46.692Z,3.57
2018-09-27T00:58:12.630Z,3.47
2018-09-27T01:00:38.590Z,3.70
2018-09-27T01:03:04.555Z,4.00
2018-09-27T01:05:30.551Z,4.13
2018-09-27T01:07:56.517Z,3.80
2018-09-27T01:10:22.492Z,4.00
2018-09-27T01:12:48.451Z,3.97
2018-09-27T01:15:14.505Z,3.87
2018-09-27T01:17:40.444Z,4.07
2018-09-27T01:20:06.405Z,4.13
2018-09-27T01:22:32.407Z,4.03
2018-09-27T01:24:58.446Z,3.70
2018-09-27T01:27:24.449Z,3.80
2018-09-27T01:29:50.406Z,4.60
2018-09-27T01:32:16.371Z,4.43
2018-09-27T01:34:43.079Z,4.57
2018-09-27T01:37:09.050Z,5.13
2018-09-27T01:39:35.002Z,4.73
2018-09-27T01:42:00.969Z,5.07
2018-09-27T01:44:27.714Z,4.60
2018-09-27T01:46:53.688Z,4.50
2018-09-27T01:49:19.654Z,4.47
2018-09-27T01:51:46.356Z,5.23
2018-09-27T01:54:12.326Z,5.57
2018-09-27T01:56:39.019Z,5.40
2018-09-27T01:59:05.004Z,5.73
2018-09-27T02:01:31.693Z,5.73
2018-09-27T02:03:57.676Z,5.90
2018-09-27T02:06:23.640Z,5.57
2018-09-27T02:08:49.718Z,5.60
2018-09-27T02:11:15.691Z,5.87
2018-09-27T02:13:41.638Z,6.37
2018-09-27T02:16:08.379Z,5.77
2018-09-27T02:18:34.334Z,6.20
2018-09-27T02:21:00.327Z,6.47
2018-09-27T02:23:26.287Z,6.47
2018-09-27T02:25:52.282Z,6.20
2018-09-27T02:28:18.398Z,6.70
2018-09-27T02:30:45.143Z,7.63
2018-09-27T02:33:11.854Z,6.77
2018-09-27T02:35:37.834Z,6.97
2018-09-27T02:38:03.880Z,6.93
2018-09-27T02:40:29.844Z,7.67
2018-09-27T02:42:55.790Z,7.60
2018-09-27T02:45:21.775Z,7.47
2018-09-27T02:47:47.737Z,7.37
2018-09-27T02:50:13.728Z,8.13
2018-09-27T02:52:39.714Z,7.37
2018-09-27T02:55:05.733Z,7.90
2018-09-27T02:57:31.672Z,7.33
2018-09-27T02:59:57.664Z,8.00
2018-09-27T03:02:23.634Z,7.33
2018-09-27T03:04:49.632Z,7.47
2018-09-27T03:07:15.613Z,8.10
2018-09-27T03:09:42.331Z,7.80
2018-09-27T03:12:09.024Z,8.67
2018-09-27T03:14:34.993Z,8.03
2018-09-27T03:17:01.695Z,7.80
2018-09-27T03:19:27.674Z,8.37
2018-09-27T03:21:54.376Z,8.30
2018-09-27T03:24:20.369Z,8.77
2018-09-27T03:26:46.337Z,8.30
2018-09-27T03:29:12.317Z,8.73
2018-09-27T03:31:38.277Z,8.73
2018-09-27T03:34:04.261Z,9.07
2018-09-27T03:36:30.205Z,8.77
2018-09-27T03:38:56.204Z,9.30
2018-09-27T03:41:22.159Z,8.60
2018-09-27T03:43:48.158Z,8.73
2018-09-27T03:46:14.120Z,9.13
2018-09-27T03:48:40.104Z,9.00
2018-09-27T03:51:06.074Z,9.20
2018-09-27T03:53:32.799Z,9.70
2018-09-27T03:55:58.782Z,9.40
2018-09-27T03:58:24.733Z,9.27
2018-09-27T04:00:50.723Z,9.07
2018-09-27T04:03:16.741Z,8.87
2018-09-27T04:05:42.699Z,9.47
2018-09-27T04:08:08.684Z,9.47
2018-09-27T04:10:34.664Z,9.97
2018-09-27T04:13:00.613Z,9.67
2018-09-27T04:15:26.582Z,9.07
2018-09-27T04:17:52.539Z,9.93
2018-09-27T04:20:19.278Z,9.60
2018-09-27T04:22:45.986Z,9.93
2018-09-27T04:25:11.962Z,10.57
2018-09-27T04:27:37.959Z,10.83
2018-09-27T04:30:03.934Z,10.13
2018-09-27T04:32:29.890Z,10.50
2018-09-27T04:34:55.876Z,10.07
2018-09-27T04:37:21.873Z,10.57
2018-09-27T04:39:47.913Z,10.27
2018-09-27T04:42:14.595Z,10.03
2018-09-27T04:44:40.587Z,10.13
2018-09-27T04:47:06.542Z,9.17
2018-09-27T04:49:32.512Z,10.40
2018-09-27T04:51:58.592Z,11.63
2018-09-27T04:54:24.485Z,10.40
2018-09-27T04:56:50.430Z,11.23
2018-09-27T04:59:16.402Z,11.20
2018-09-27T05:01:42.350Z,10.03
2018-09-27T05:04:08.330Z,11.40
2018-09-27T05:06:35.028Z,9.53
2018-09-27T05:09:00.987Z,10.80
2018-09-27T05:11:26.964Z,10.37
2018-09-27T05:13:52.898Z,11.77
2018-09-27T05:16:18.880Z,11.70
2018-09-27T05:18:44.872Z,11.00
2018-09-27T05:21:10.855Z,10.33
2018-09-27T05:23:36.789Z,10.97
2018-09-27T05:26:02.749Z,11.03
2018-09-27T05:28:28.741Z,11.83
2018-09-27T05:30:54.722Z,11.63
2018-09-27T05:33:20.674Z,10.60
2018-09-27T05:35:46.647Z,11.23
2018-09-27T05:38:12.593Z,10.27
2018-09-27T05:40:38.572Z,10.80
2018-09-27T05:43:05.266Z,11.90
2018-09-27T05:45:31.288Z,11.10
2018-09-27T05:47:57.982Z,11.77
2018-09-27T05:50:23.979Z,10.90
2018-09-27T05:52:49.954Z,10.97
2018-09-27T05:55:15.941Z,10.97
2018-09-27T05:57:41.930Z,11.27
2018-09-27T06:00:07.884Z,11.60
2018-09-27T06:02:33.887Z,11.23
2018-09-27T06:04:59.865Z,11.77
2018-09-27T06:07:25.809Z,10.60
2018-09-27T06:09:51.800Z,11.77
2018-09-27T06:12:17.752Z,11.60
2018-09-27T06:14:43.728Z,12.17
2018-09-27T06:17:10.433Z,12.37
2018-09-27T06:19:36.393Z,10.50
2018-09-27T06:22:03.125Z,11.73
2018-09-27T06:24:29.825Z,12.07
2018-09-27T06:26:55.797Z,11.40
2018-09-27T06:29:21.789Z,11.93
2018-09-27T06:31:47.774Z,11.73
2018-09-27T06:34:13.737Z,11.50
2018-09-27T06:36:39.726Z,11.80
2018-09-27T06:39:05.673Z,11.47
2018-09-27T06:41:31.728Z,9.60
2018-09-27T06:43:57.644Z,9.20
2018-09-27T06:46:24.388Z,8.83
2018-09-27T06:48:51.220Z,8.90
2018-09-27T06:51:17.149Z,8.90
2018-09-27T06:53:43.101Z,8.23
2018-09-27T06:56:09.151Z,9.17
2018-09-27T06:58:35.111Z,8.57
2018-09-27T07:01:01.244Z,7.90
2018-09-27T07:03:27.071Z,7.90
2018-09-27T07:05:53.791Z,7.80
2018-09-27T07:08:19.776Z,7.67
2018-09-27T07:10:45.732Z,7.83
2018-09-27T07:13:11.732Z,7.83
2018-09-27T07:15:37.744Z,7.43
2018-09-27T07:18:04.461Z,8.00
2018-09-27T07:20:30.464Z,8.10
2018-09-27T07:22:56.432Z,8.13
2018-09-27T07:25:22.396Z,8.07
2018-09-27T07:27:49.142Z,8.00
2018-09-27T07:30:15.846Z,7.00
2018-09-27T07:32:41.868Z,8.10
2018-09-27T07:35:07.799Z,7.60
2018-09-27T07:37:33.779Z,7.63
2018-09-27T07:39:59.737Z,7.63
2018-09-27T07:42:25.739Z,7.33
2018-09-27T07:44:51.703Z,7.67
2018-09-27T07:47:17.691Z,7.07
2018-09-27T07:49:43.625Z,7.03
2018-09-27T07:52:09.613Z,7.20
2018-09-27T07:54:35.651Z,7.40
2018-09-27T07:57:01.582Z,7.00
2018-09-27T07:59:27.529Z,6.70
2018-09-27T08:01:53.539Z,7.30
2018-09-27T08:04:19.595Z,7.80
2018-09-27T08:06:45.499Z,7.53
2018-09-27T08:09:11.495Z,7.10
2018-09-27T08:11:37.567Z,7.53
2018-09-27T08:14:04.208Z,7.30
2018-09-27T08:16:30.162Z,7.20
2018-09-27T08:18:56.148Z,7.30
2018-09-27T08:21:22.206Z,7.00
2018-09-27T08:23:48.092Z,7.00
2018-09-27T08:26:14.046Z,6.97
2018-09-27T08:28:40.024Z,6.97
2018-09-27T08:31:06.025Z,7.30
2018-09-27T08:33:31.985Z,6.97
2018-09-27T08:35:57.942Z,7.20
2018-09-27T08:38:23.984Z,6.90
2018-09-27T08:40:49.885Z,6.97
2018-09-27T08:43:15.861Z,7.28
2018-09-27T08:45:41.935Z,6.80
2018-09-27T08:48:07.840Z,7.47
2018-09-27T08:50:34.544Z,7.00
2018-09-27T08:53:00.540Z,7.30
2018-09-27T08:55:26.557Z,7.20
2018-09-27T08:57:52.522Z,6.83
2018-09-27T09:00:18.495Z,6.57
2018-09-27T09:02:45.225Z,6.93
2018-09-27T09:05:11.909Z,7.17
2018-09-27T09:07:37.914Z,6.90
2018-09-27T09:10:03.881Z,7.13
2018-09-27T09:12:29.822Z,6.70
2018-09-27T09:14:56.538Z,7.50
2018-09-27T09:17:22.489Z,7.17
2018-09-27T09:19:49.221Z,7.57
2018-09-27T09:22:15.940Z,6.37
2018-09-27T09:24:41.935Z,7.13
2018-09-27T09:27:07.923Z,7.03
2018-09-27T09:29:33.990Z,6.37
2018-09-27T09:31:59.939Z,6.95
2018-09-27T09:34:26.690Z,7.10
2018-09-27T09:36:53.380Z,7.33
2018-09-27T09:39:19.375Z,6.23
2018-09-27T09:41:45.343Z,6.57
2018-09-27T09:44:11.344Z,6.47
2018-09-27T09:46:37.319Z,6.18
2018-09-27T09:49:03.366Z,6.22
2018-09-27T09:51:29.341Z,6.90
2018-09-27T09:53:55.339Z,6.03
2018-09-27T09:56:28.264Z,5.70
2018-09-27T09:58:54.245Z,6.47
2018-09-27T10:01:20.214Z,6.27
2018-09-27T10:03:46.954Z,5.93
2018-09-27T10:06:12.908Z,5.57
2018-09-27T10:08:38.888Z,5.80
2018-09-27T10:11:04.848Z,5.73
2018-09-27T10:13:30.826Z,5.57
2018-09-27T10:15:56.788Z,5.30
2018-09-27T10:18:22.759Z,5.20
2018-09-27T10:20:48.721Z,5.32
2018-09-27T10:23:15.397Z,4.80
2018-09-27T10:25:41.388Z,5.40
2018-09-27T10:28:08.092Z,5.47
2018-09-27T10:30:34.096Z,5.00
2018-09-27T10:33:00.050Z,4.77
2018-09-27T10:35:26.031Z,4.77
2018-09-27T10:37:51.968Z,4.13
2018-09-27T10:40:17.946Z,4.37
2018-09-27T10:42:43.894Z,3.93
2018-09-27T10:45:09.894Z,4.03
2018-09-27T10:47:35.873Z,3.90
2018-09-27T10:50:01.862Z,4.20
2018-09-27T10:52:27.818Z,4.13
2018-09-27T10:54:53.820Z,4.07
2018-09-27T10:57:19.883Z,4.40
2018-09-27T10:59:46.586Z,4.00
2018-09-27T11:02:13.241Z,4.13
2018-09-27T11:04:39.220Z,4.97
2018-09-27T11:07:05.191Z,4.57
2018-09-27T11:09:31.184Z,3.70
2018-09-27T11:11:57.174Z,3.73
2018-09-27T11:14:23.186Z,3.80
2018-09-27T11:16:49.897Z,3.87
2018-09-27T11:19:15.880Z,3.90
2018-09-27T11:21:41.823Z,4.17
2018-09-27T11:24:07.816Z,3.60
2018-09-27T11:26:33.769Z,4.07
2018-09-27T11:28:59.759Z,3.37
2018-09-27T11:31:26.466Z,3.47
2018-09-27T11:33:52.418Z,3.20
2018-09-27T11:36:18.411Z,3.40
2018-09-27T11:38:44.452Z,3.20
2018-09-27T11:41:10.416Z,3.37
2018-09-27T11:43:36.386Z,2.67
2018-09-27T11:46:03.117Z,2.97
2018-09-27T11:48:29.066Z,3.43
2018-09-27T11:50:55.073Z,3.20
2018-09-27T11:53:21.780Z,3.13
2018-09-27T11:55:47.763Z,3.50
2018-09-27T11:58:13.737Z,3.13
2018-09-27T12:00:39.789Z,3.30
2018-09-27T12:03:05.714Z,3.27
2018-09-27T12:05:32.476Z,3.50
2018-09-27T12:07:58.473Z,3.07
2018-09-27T12:10:25.209Z,3.00
2018-09-27T12:12:51.166Z,3.10
2018-09-27T12:15:17.153Z,2.90
2018-09-27T12:17:43.291Z,3.47
2018-09-27T12:20:09.299Z,3.03
2018-09-27T12:22:35.197Z,3.20
2018-09-27T12:25:01.994Z,3.23
2018-09-27T12:27:27.946Z,2.60
2018-09-27T12:29:54.011Z,3.27
2018-09-27T12:32:21.402Z,3.20
2018-09-27T12:34:47.397Z,3.20
2018-09-27T12:37:14.102Z,3.20
2018-09-27T12:39:40.116Z,2.80
2018-09-27T12:42:06.868Z,3.13
2018-09-27T12:44:32.787Z,3.30
2018-09-27T12:46:58.895Z,3.27
2018-09-27T12:49:24.782Z,2.70
2018-09-27T12:51:50.960Z,2.67
2018-09-27T12:54:16.812Z,2.90
2018-09-27T12:56:43.558Z,2.60
2018-09-27T12:59:09.551Z,2.87
2018-09-27T13:01:35.635Z,3.50
2018-09-27T13:04:01.712Z,3.50
2018-09-27T13:06:27.663Z,2.90
2018-09-27T13:08:53.693Z,2.57
2018-09-27T13:11:19.720Z,2.97
2018-09-27T13:13:45.746Z,2.70
2018-09-27T13:16:11.812Z,3.03
2018-09-27T13:18:38.542Z,2.80
2018-09-27T13:21:04.547Z,2.87
2018-09-27T13:23:30.520Z,3.17
2018-09-27T13:25:56.511Z,2.90
2018-09-27T13:28:22.533Z,3.43
2018-09-27T13:30:48.533Z,2.90
2018-09-27T13:33:14.528Z,3.20
2018-09-27T13:35:40.545Z,2.67
2018-09-27T13:38:07.281Z,3.00
2018-09-27T13:40:33.279Z,3.40
2018-09-27T13:42:59.370Z,3.37
2018-09-27T13:45:26.039Z,3.03
2018-09-27T13:47:52.044Z,2.70
2018-09-27T13:50:18.018Z,3.23
2018-09-27T13:52:44.010Z,3.63
2018-09-27T13:55:10.055Z,3.80
2018-09-27T13:57:36.031Z,3.20
2018-09-27T14:00:02.020Z,3.50
2018-09-27T14:02:28.752Z,3.57
2018-09-27T14:04:54.709Z,3.30
2018-09-27T14:07:20.707Z,3.70
2018-09-27T14:09:47.417Z,3.70
2018-09-27T14:12:13.415Z,3.17
2018-09-27T14:14:39.435Z,3.77
2018-09-27T14:17:05.480Z,2.80
2018-09-27T14:19:31.453Z,3.50
2018-09-27T14:21:57.451Z,2.90
2018-09-27T14:24:24.169Z,3.53
2018-09-27T14:26:50.177Z,3.33
2018-09-27T14:29:16.163Z,3.87
2018-09-27T14:31:42.155Z,2.90
2018-09-27T14:34:08.112Z,3.00
2018-09-27T14:36:34.157Z,3.60
2018-09-27T14:39:00.124Z,3.93
2018-09-27T14:41:26.126Z,3.90
2018-09-27T14:43:52.102Z,3.90
2018-09-27T14:46:18.080Z,3.77
2018-09-27T14:48:44.072Z,3.53
2018-09-27T14:51:10.046Z,3.90
2018-09-27T14:53:36.835Z,3.87
2018-09-27T14:56:02.841Z,4.10
2018-09-27T14:58:28.880Z,3.90
2018-09-27T15:00:54.847Z,3.70
2018-09-27T15:03:20.857Z,3.30
2018-09-27T15:05:46.847Z,3.40
2018-09-27T15:08:12.849Z,3.27
2018-09-27T15:10:38.843Z,3.90
2018-09-27T15:13:05.604Z,4.97
2018-09-27T15:15:31.590Z,3.80
2018-09-27T15:17:57.645Z,3.53
2018-09-27T15:20:23.554Z,4.70
2018-09-27T15:22:50.310Z,4.17
2018-09-27T15:25:17.033Z,4.50
2018-09-27T15:27:43.077Z,4.17
2018-09-27T15:30:09.097Z,4.47
2018-09-27T15:32:35.122Z,4.70
2018-09-27T15:35:01.142Z,4.57
2018-09-27T15:37:27.879Z,4.43
2018-09-27T15:39:54.618Z,4.83
2018-09-27T15:42:20.685Z,3.87
2018-09-27T15:44:46.717Z,4.70
2018-09-27T15:47:12.713Z,4.63
2018-09-27T15:49:38.708Z,5.77
2018-09-27T15:52:05.443Z,4.70
2018-09-27T15:54:31.457Z,4.00
2018-09-27T15:56:57.461Z,5.67
2018-09-27T15:59:23.484Z,4.90
2018-09-27T16:01:49.477Z,5.33
2018-09-27T16:04:15.523Z,6.33
2018-09-27T16:06:41.478Z,4.80
2018-09-27T16:09:07.493Z,5.73
2018-09-27T16:11:34.311Z,6.07
2018-09-27T16:14:01.059Z,6.90
2018-09-27T16:16:27.060Z,5.73
2018-09-27T16:18:53.039Z,5.57
2018-09-27T16:21:19.767Z,5.10
2018-09-27T16:23:46.636Z,5.97
2018-09-27T16:26:12.561Z,5.30
2018-09-27T16:28:38.602Z,6.23
2018-09-27T16:31:04.622Z,5.20
2018-09-27T16:33:30.631Z,5.70
2018-09-27T16:35:56.629Z,5.13
2018-09-27T16:38:22.651Z,4.90
2018-09-27T16:40:48.602Z,4.77
2018-09-27T16:43:15.343Z,4.50
2018-09-27T16:45:41.344Z,4.93
2018-09-27T16:48:08.068Z,4.70
2018-09-27T16:50:34.094Z,4.37
2018-09-27T16:53:00.090Z,4.77
2018-09-27T16:55:26.122Z,4.77
2018-09-27T16:57:52.095Z,4.67
2018-09-27T17:00:18.149Z,4.83
2018-09-27T17:02:44.132Z,4.70
2018-09-27T17:05:10.881Z,4.73
2018-09-27T17:07:37.575Z,5.13
2018-09-27T17:10:03.617Z,4.30
2018-09-27T17:12:29.622Z,4.27
2018-09-27T17:14:55.631Z,4.17
2018-09-27T17:17:21.614Z,4.00
2018-09-27T17:19:47.588Z,3.83
2018-09-27T17:22:13.587Z,3.60
2018-09-27T17:24:39.679Z,3.70
2018-09-27T17:27:05.656Z,3.90
2018-09-27T17:29:31.714Z,3.90
2018-09-27T17:31:58.471Z,4.20
2018-09-27T17:34:25.239Z,3.90
2018-09-27T17:36:51.337Z,3.97
2018-09-27T17:39:18.101Z,4.07
2018-09-27T17:41:44.074Z,3.57
2018-09-27T17:44:10.090Z,3.70
2018-09-27T17:46:36.121Z,3.67
2018-09-27T17:49:02.098Z,3.60
2018-09-27T17:51:28.078Z,3.30
2018-09-27T17:53:54.039Z,3.87
2018-09-27T17:56:20.775Z,3.57
2018-09-27T17:58:46.884Z,4.40
2018-09-27T18:01:13.603Z,3.60
2018-09-27T18:03:39.596Z,4.20
2018-09-27T18:06:05.591Z,4.17
2018-09-27T18:08:32.311Z,4.20
2018-09-27T18:10:58.337Z,4.20
2018-09-27T18:13:25.088Z,4.30
2018-09-27T18:15:51.840Z,3.70
2018-09-27T18:18:17.867Z,4.10
2018-09-27T18:20:43.918Z,4.33
2018-09-27T18:23:09.963Z,4.40
2018-09-27T18:25:35.999Z,4.80
2018-09-27T18:28:02.730Z,4.13
2018-09-27T18:30:28.735Z,5.17
2018-09-27T18:32:54.678Z,5.20
2018-09-27T18:35:20.712Z,5.67
2018-09-27T18:37:46.774Z,6.20
2018-09-27T18:40:12.774Z,5.20
2018-09-27T18:42:39.513Z,4.73
2018-09-27T18:45:05.542Z,5.30
2018-09-27T18:47:32.257Z,5.10
2018-09-27T18:49:58.322Z,5.07
2018-09-27T18:52:24.298Z,5.37
2018-09-27T18:54:50.299Z,5.40
2018-09-27T18:57:16.297Z,5.63
2018-09-27T18:59:42.265Z,6.00
2018-09-27T19:02:08.241Z,6.17
2018-09-27T19:04:34.195Z,8.17
2018-09-27T19:07:00.230Z,6.83
2018-09-27T19:09:26.241Z,7.67
2018-09-27T19:11:52.256Z,6.47
2018-09-27T19:14:18.235Z,6.40
2018-09-27T19:16:44.996Z,6.17
2018-09-27T19:19:11.044Z,6.03
2018-09-27T19:21:37.072Z,6.30
2018-09-27T19:24:03.043Z,6.13
2018-09-27T19:26:29.794Z,6.10
2018-09-27T19:28:55.788Z,6.10
2018-09-27T19:31:21.806Z,5.67
2018-09-27T19:33:47.813Z,5.13
2018-09-27T19:36:13.835Z,5.37
2018-09-27T19:38:39.887Z,5.60
2018-09-27T19:41:06.789Z,4.93
2018-09-27T19:43:32.821Z,4.70
2018-09-27T19:45:58.799Z,4.50
2018-09-27T19:48:24.821Z,5.07
2018-09-27T19:50:51.643Z,4.70
2018-09-27T19:53:17.775Z,4.43
2018-09-27T19:55:43.809Z,4.33
2018-09-27T19:58:10.651Z,4.13
2018-09-27T20:00:36.593Z,4.63
2018-09-27T20:03:02.722Z,4.27
2018-09-27T20:05:28.714Z,4.20
2018-09-27T20:07:55.458Z,3.77
2018-09-27T20:10:22.285Z,4.23
2018-09-27T20:12:48.235Z,3.93
2018-09-27T20:15:15.003Z,4.17
2018-09-27T20:17:40.994Z,4.57
2018-09-27T20:20:07.052Z,3.70
2018-09-27T20:22:33.060Z,3.43
2018-09-27T20:24:59.151Z,3.30
2018-09-27T20:27:25.174Z,3.33
2018-09-27T20:29:51.186Z,2.57
2018-09-27T20:32:17.220Z,2.70
2018-09-27T20:34:43.200Z,2.80
2018-09-27T20:37:09.193Z,2.63
2018-09-27T20:39:35.913Z,2.60
2018-09-27T20:42:01.930Z,2.20
2018-09-27T20:44:27.934Z,2.23
2018-09-27T20:46:53.951Z,2.77
2018-09-27T20:49:19.926Z,2.33
2018-09-27T20:51:46.654Z,2.80
2018-09-27T20:54:13.682Z,2.77
2018-09-27T20:56:39.676Z,2.50
2018-09-27T20:59:06.472Z,3.00
2018-09-27T21:01:33.301Z,2.83
2018-09-27T21:03:59.298Z,2.57
2018-09-27T21:06:25.323Z,3.10
2018-09-27T21:08:51.334Z,2.83
2018-09-27T21:11:17.297Z,2.97
2018-09-27T21:13:43.299Z,2.50
2018-09-27T21:16:09.304Z,2.47
2018-09-27T21:18:35.328Z,2.93
2018-09-27T21:21:01.321Z,3.07
2018-09-27T21:23:27.322Z,2.73
2018-09-27T21:25:53.308Z,2.63
2018-09-27T21:28:19.303Z,2.30
2018-09-27T21:30:45.304Z,2.37
2018-09-27T21:33:11.424Z,2.40
2018-09-27T21:35:38.171Z,2.37
2018-09-27T21:38:04.856Z,2.37
2018-09-27T21:40:30.854Z,2.50
2018-09-27T21:42:56.861Z,2.33
2018-09-27T21:45:22.886Z,2.57
2018-09-27T21:47:49.600Z,2.60
2018-09-27T21:50:15.645Z,2.30
2018-09-27T21:52:41.653Z,2.20
2018-09-27T21:55:07.661Z,2.67
2018-09-27T21:57:33.645Z,2.30
2018-09-27T21:59:59.670Z,2.90
2018-09-27T22:02:25.645Z,2.60
2018-09-27T22:04:52.535Z,3.07
2018-09-27T22:07:18.522Z,2.80
2018-09-27T22:09:45.252Z,2.60
2018-09-27T22:12:11.303Z,3.50
2018-09-27T22:14:37.276Z,2.97
2018-09-27T22:17:03.293Z,3.77
2018-09-27T22:19:29.381Z,3.20
2018-09-27T22:21:55.358Z,3.70
2018-09-27T22:24:21.302Z,4.30
2018-09-27T22:26:48.035Z,4.50
2018-09-27T22:29:14.036Z,4.07
2018-09-27T22:31:40.128Z,4.33
2018-09-27T22:34:06.104Z,4.03
2018-09-27T22:36:32.821Z,4.30
2018-09-27T22:38:58.886Z,4.93
2018-09-27T22:41:24.883Z,4.47
2018-09-27T22:43:51.684Z,4.83
2018-09-27T22:46:17.655Z,5.27
2018-09-27T22:48:43.635Z,5.17
2018-09-27T22:51:09.628Z,4.87
2018-09-27T22:53:35.717Z,5.90
2018-09-27T22:56:01.688Z,5.57
2018-09-27T22:58:27.714Z,5.40
2018-09-27T23:00:53.693Z,5.60
2018-09-27T23:03:20.408Z,6.10
2018-09-27T23:05:46.411Z,5.83
2018-09-27T23:08:12.400Z,6.40
2018-09-27T23:10:38.434Z,6.20
2018-09-27T23:13:04.429Z,6.87
2018-09-27T23:15:30.401Z,6.53
2018-09-27T23:17:56.374Z,6.73
2018-09-27T23:20:23.287Z,6.73
2018-09-27T23:22:50.038Z,6.83
2018-09-27T23:25:16.098Z,6.47
2018-09-27T23:27:42.850Z,6.80
2018-09-27T23:30:09.870Z,7.20
2018-09-27T23:32:35.867Z,6.40
2018-09-27T23:35:01.842Z,6.83
2018-09-27T23:37:27.883Z,7.10
2018-09-27T23:39:53.865Z,6.70
2018-09-27T23:42:19.885Z,7.10
2018-09-27T23:44:46.613Z,7.37
2018-09-27T23:47:12.605Z,7.20
2018-09-27T23:49:38.600Z,7.63
2018-09-27T23:52:04.616Z,7.30
2018-09-27T23:54:30.596Z,7.13
2018-09-27T23:56:56.615Z,8.17
2018-09-27T23:59:22.602Z,7.53
